Bozrah, CT

4:56 PM EDT on October 01, 2014 (GMT -0400)
Village Drive | Change Station
CLOSE
Current Station
Personal Weather Station
Location: East Lyme, CT
Elevation: 51 m
Nearby Weather Stations

Elev 51 m 41.38 °N, 72.22 °W | Updated 1 second ago

Rain
Rain
14.8 °C
Feels Like 14.8 °C
N
4.8
Wind Variable Wind from NW
Gusts 9.7 km/h

Today
High -- | Low -- °C
--% Chance of Precip.
Yesterday
High -- | Low -- °C
Precip. -- mm
6:45 AM 6:30 PM
Waxing Crescent, 51% visible
Pressure 1015 hPa
Visibility 16.1 kilometers
Clouds Overcast 304 m
Dew Point 14 °C
Humidity 96%
Rainfall 9 mm
Snow Depth Not available.
UV 0 out of 12
Pollen .40 out of 12
Ozone Good
PM2.5 Good
Flu Activity Not available.
METAR KIJD 302052Z AUTO 03006KT 10SM OVC010 16/13 A2998 RMK AO2 RAB1954E41 CIG 009V015 SLP152 P0001 60002 T01560133 58002

More Conditions Fewer Conditions

Pressure 1015 hPa
Visibility 16.1 kilometers
Clouds Overcast 304 m
Dew Point 14 °C
Humidity 96%
Rainfall 9 mm
Snow Depth Not available.
UV 0 out of 12
Pollen .40 out of 12
Ozone Good
PM2.5 Good
Flu Activity Not available.
METAR KIJD 302052Z AUTO 03006KT 10SM OVC010 16/13 A2998 RMK AO2 RAB1954E41 CIG 009V015 SLP152 P0001 60002 T01560133 58002

More Conditions Fewer Conditions

10-Day Weather Forecast

Almanac

Astronomy

Oct. 01, 2014 Rise Set
Actual Time 6:45 AM EDT 6:30 PM EDT
Civil Twilight 6:17 AM EDT 6:58 PM EDT
Nautical Twilight 5:45 AM EDT 7:30 PM EDT
Astronomical Twilight 5:13 AM EDT 8:02 PM EDT
Moon 1:47 PM EDT 11:56 PM EDT
Length of Visible Light 12h 40m
Length of Day
11h 45m
Tomorrow will be 2m 45s shorter.
Waxing Crescent, 51% of the Moon is Illuminated
Today
Waxing Crescent
Oct 8
Full
Oct 15
Last Quarter
Oct 23
New
Oct 30
First Quarter

Today's Extremes

State Highs State Lows

Community

WunderPhotos

Upload Photos

1,758,043 photos uploaded!

WunderBlogs® & News

By Dr. Jeff Masters
Director of Meteorology, Weather Underground
By Kari Strenfel
Meteorologist, Weather Underground
By Christopher C. Burt
Weather Historian, Weather Underground
October 1, 2014
October 1, 2014
October 1, 2014

Nearby

Air Quality

  Air Quality AQ Index Pollutant
Yesterday Good
PM2.5
Yesterday Good
OZONE
Current Good
PM2.5
Current Good
OZONE
Wednesday Good
PM2.5
Thursday Good
PM2.5

Snow Depth

Station Depth Elevation
No new snow has been reported.

Earthquake Activity

City Distance Mag. Time & Date
No recent earthquake activity has been reported nearby.
Minimum magnitude displayed is 2.5.

Coastal Water Temperatures

Place Temperature
New London, CT 19.4 °C
Newport, RI 17.8 °C
Quonset Point, RI 18.3 °C
Conimicut Light, RI 18.9 °C
Providence, RI 18.3 °C

Nearby Weather Stations